Terminal Aerodrome Forecast
Issued by NWS

Home | Current Version | Previous Version | Text Only | Print | Product List | Glossary On
Versions: 1 2 3 4 5 6 7 8 9 10 11 12 13
000
FTUS41 KPHI 300900 AAA
TAFMIV
TAF AMD
KMIV 300925Z 3009/3106 VRB03KT P6SM SCT040
     FM301400 16008KT P6SM SCT040
     FM310200 VRB03KT P6SM SCT050 BKN150=

USA.gov is the U.S. government's official web portal to all federal, state and local government web resources and services.